Time;durP1;ratioP1;P1;durP2;ratioP2;P2;SDS_P1;SDS_P2;PMS_P1;PMS_P2;Temp;Humidity;BMP_temperature;BMP_pressure;BME280_temperature;BME280_humidity;BME280_pressure;Samples;Min_cycle;Max_cycle;Signal;HPM_P1;HPM_P2
2022/07/15 00:03:46;;;;;;;14.48;10.68;;;16.90;99.90;;;;;;21034135;28;20435;-59
2022/07/15 00:13:48;;;;;;;12.52;10.25;;;16.60;99.90;;;;;;21050028;28;20401;-59
2022/07/15 00:23:50;;;;;;;13.65;10.73;;;16.40;99.90;;;;;;21042123;28;20489;-59
2022/07/15 00:33:52;;;;;;;13.25;11.13;;;16.30;99.90;;;;;;20982600;28;20045;-59
2022/07/15 00:43:55;;;;;;;12.38;10.27;;;16.00;99.90;;;;;;20981827;28;20390;-59
2022/07/15 00:53:57;;;;;;;13.60;11.68;;;15.90;99.90;;;;;;20980585;28;20040;-59
2022/07/15 01:04:03;;;;;;;12.73;10.70;;;15.80;99.90;;;;;;21060061;28;20062;-59
2022/07/15 01:14:06;;;;;;;16.40;12.68;;;15.60;99.90;;;;;;21046202;28;20052;-56
2022/07/15 01:24:10;;;;;;;17.00;14.75;;;15.50;99.90;;;;;;21046161;28;20111;-57
2022/07/15 01:34:20;;;;;;;14.40;11.50;;;15.40;99.90;;;;;;21043692;28;20082;-53
2022/07/15 01:44:23;;;;;;;13.02;10.45;;;15.50;99.90;;;;;;21031794;28;20036;-58
2022/07/15 01:54:28;;;;;;;13.65;10.05;;;15.60;99.90;;;;;;20976196;28;20044;-53
2022/07/15 02:04:36;;;;;;;12.87;10.90;;;15.50;99.90;;;;;;20975340;28;20909;-59
2022/07/15 02:14:39;;;;;;;14.82;11.95;;;15.50;99.90;;;;;;20958986;28;20049;-59
2022/07/15 02:24:42;;;;;;;12.98;11.68;;;15.50;99.90;;;;;;20987922;28;20032;-52
2022/07/15 02:34:52;;;;;;;15.13;12.23;;;15.50;99.90;;;;;;21040531;28;20036;-59
2022/07/15 02:44:54;;;;;;;18.80;14.43;;;15.50;99.90;;;;;;21038991;28;20040;-59
2022/07/15 02:54:58;;;;;;;12.70;11.40;;;15.40;99.90;;;;;;21034302;28;20032;-59
2022/07/15 03:05:01;;;;;;;13.10;11.05;;;15.20;99.90;;;;;;20954075;28;20393;-59
2022/07/15 03:15:05;;;;;;;13.55;12.10;;;15.00;99.90;;;;;;20953728;28;20412;-49
2022/07/15 03:25:10;;;;;;;13.48;11.38;;;14.90;99.90;;;;;;20953247;28;20432;-59
2022/07/15 03:35:13;;;;;;;8.95;7.97;;;15.00;99.90;;;;;;20952383;28;20474;-59
2022/07/15 03:45:16;;;;;;;9.68;6.55;;;15.10;99.90;;;;;;20987300;28;20040;-52
2022/07/15 03:55:21;;;;;;;7.75;6.22;;;15.30;99.90;;;;;;21034256;28;20089;-59
2022/07/15 04:05:24;;;;;;;8.48;7.43;;;15.30;99.90;;;;;;21051631;28;20652;-58
2022/07/15 04:15:28;;;;;;;10.90;9.13;;;15.20;99.90;;;;;;21033766;28;20064;-59
2022/07/15 04:25:30;;;;;;;12.30;8.35;;;15.20;99.90;;;;;;21013121;28;20036;-54
2022/07/15 04:35:33;;;;;;;11.50;8.55;;;15.20;99.90;;;;;;20966514;28;20033;-53
2022/07/15 04:45:40;;;;;;;14.60;9.65;;;15.20;99.90;;;;;;20949790;28;20036;-58
2022/07/15 04:55:45;;;;;;;12.95;10.38;;;15.40;99.90;;;;;;20960025;28;20458;-53
2022/07/15 05:05:48;;;;;;;10.88;9.77;;;15.60;99.90;;;;;;21056109;28;20032;-59
2022/07/15 05:15:54;;;;;;;12.57;9.20;;;15.70;99.90;;;;;;21046266;28;20510;-59
2022/07/15 05:25:59;;;;;;;9.80;8.80;;;15.90;99.90;;;;;;21045972;28;20036;-50
2022/07/15 05:36:02;;;;;;;10.35;8.43;;;16.10;99.90;;;;;;21044976;28;20032;-59
2022/07/15 05:46:07;;;;;;;10.50;8.98;;;16.30;99.90;;;;;;21034353;28;20436;-54
2022/07/15 05:56:19;;;;;;;10.00;8.45;;;16.80;99.90;;;;;;20959877;28;20117;-59
2022/07/15 06:06:22;;;;;;;8.48;7.35;;;17.30;99.90;;;;;;20975424;28;20094;-54
2022/07/15 06:16:26;;;;;;;10.05;7.72;;;17.70;99.90;;;;;;20957788;28;20064;-59
2022/07/15 06:26:28;;;;;;;8.75;5.25;;;18.40;99.90;;;;;;21019167;28;20480;-61
2022/07/15 06:36:31;;;;;;;5.30;4.78;;;23.00;99.90;;;;;;21057848;28;20078;-54
2022/07/15 06:46:33;;;;;;;5.40;4.72;;;27.10;93.00;;;;;;21039292;28;20409;-60
2022/07/15 06:56:39;;;;;;;6.33;5.43;;;28.60;90.20;;;;;;21019423;28;20371;-60
2022/07/15 07:06:42;;;;;;;5.25;4.75;;;;;;;;;;20954591;28;20036;-63
2022/07/15 07:16:46;;;;;;;5.60;5.10;;;32.20;80.60;;;;;;20953360;28;20485;-62
2022/07/15 07:26:48;;;;;;;6.00;5.43;;;32.90;79.50;;;;;;20968293;28;20044;-63
2022/07/15 07:36:50;;;;;;;8.65;5.38;;;33.70;73.80;;;;;;20969924;28;20036;-62
2022/07/15 07:46:53;;;;;;;8.48;6.63;;;33.60;73.70;;;;;;21000422;28;20032;-62
2022/07/15 07:56:55;;;;;;;9.68;8.77;;;33.20;71.60;;;;;;21051037;28;20062;-62
2022/07/15 08:06:58;;;;;;;9.33;6.07;;;32.60;70.90;;;;;;21050888;28;20048;-63
2022/07/15 08:17:01;;;;;;;7.43;6.80;;;32.00;74.90;;;;;;21050759;28;20040;-63
2022/07/15 08:27:03;;;;;;;6.45;5.78;;;32.00;73.80;;;;;;21000187;28;20037;-63
2022/07/15 08:37:05;;;;;;;6.32;5.82;;;31.70;73.40;;;;;;20968528;28;20068;-63
2022/07/15 08:47:07;;;;;;;8.50;6.63;;;31.80;75.50;;;;;;20981548;28;20033;-59
2022/07/15 08:57:10;;;;;;;8.65;6.72;;;32.20;75.50;;;;;;21004087;28;20153;-63
2022/07/15 09:07:12;;;;;;;7.47;6.35;;;31.90;76.10;;;;;;21063645;28;20405;-58
2022/07/15 09:17:15;;;;;;;7.22;6.50;;;31.80;73.90;;;;;;21079791;28;20401;-63
2022/07/15 09:27:28;;;;;;;6.22;5.72;;;31.80;75.50;;;;;;21062771;28;20024;-64
2022/07/15 09:37:31;;;;;;;7.30;6.68;;;32.00;76.20;;;;;;21061228;28;20429;-64
2022/07/15 09:47:33;;;;;;;7.63;6.80;;;31.90;75.70;;;;;;21021234;28;20045;-64
2022/07/15 09:57:36;;;;;;;9.20;6.47;;;32.00;75.10;;;;;;20976051;28;20040;-64
2022/07/15 10:07:39;;;;;;;8.75;7.05;;;32.50;74.80;;;;;;20975604;28;20104;-63
2022/07/15 10:18:21;;;;;;;7.07;6.43;;;32.30;75.70;;;;;;20974873;28;20036;-63
2022/07/15 10:28:50;;;;;;;11.20;8.32;;;32.60;75.10;;;;;;20675341;28;20050;-63
2022/07/15 10:39:03;;;;;;;8.50;7.60;;;32.40;74.40;;;;;;20653261;28;20054;-63
2022/07/15 10:49:05;;;;;;;8.70;7.80;;;32.30;74.10;;;;;;20636129;28;20042;-63
2022/07/15 10:59:28;;;;;;;13.35;9.82;;;32.00;74.50;;;;;;20773960;28;20036;-63
2022/07/15 11:09:53;;;;;;;14.85;11.27;;;32.30;74.40;;;;;;21053971;28;20048;-64
2022/07/15 11:20:00;;;;;;;15.98;11.27;;;32.00;74.40;;;;;;21053357;28;20040;-63
2022/07/15 11:30:04;;;;;;;;;;;31.70;76.60;;;;;;21053714;28;20546;-63
2022/07/15 11:50:56;;;;;;;10.80;8.38;;;31.50;76.60;;;;;;20971541;28;20051;-63
2022/07/15 12:01:23;;;;;;;11.35;7.53;;;31.60;76.90;;;;;;20984602;28;20029;-63
2022/07/15 12:11:34;;;;;;;13.35;10.27;;;32.10;75.80;;;;;;20952190;28;20103;-58
2022/07/15 12:21:38;;;;;;;13.43;10.45;;;32.30;75.10;;;;;;20988700;28;20036;-63
2022/07/15 12:31:43;;;;;;;13.02;10.00;;;32.20;72.30;;;;;;21066637;28;20104;-63
2022/07/15 12:42:00;;;;;;;11.25;10.07;;;32.20;74.90;;;;;;21067524;28;20067;-63
2022/07/15 12:52:18;;;;;;;10.45;9.32;;;32.60;74.40;;;;;;21065128;28;20054;-63
2022/07/15 13:02:21;;;;;;;14.45;8.60;;;33.10;73.10;;;;;;20997904;28;20098;-64
2022/07/15 13:12:24;;;;;;;10.52;9.45;;;33.50;72.90;;;;;;20979254;28;20049;-63
2022/07/15 13:22:28;;;;;;;11.10;8.88;;;33.40;71.00;;;;;;20978884;28;20040;-64
2022/07/15 13:32:32;;;;;;;8.43;7.75;;;33.30;71.10;;;;;;20978045;28;20032;-64
2022/07/15 13:42:35;;;;;;;10.38;8.30;;;33.30;72.20;;;;;;20977345;28;20378;-63
2022/07/15 13:52:44;;;;;;;9.15;7.30;;;33.30;71.80;;;;;;21040710;28;20040;-58
2022/07/15 14:02:48;;;;;;;8.20;6.70;;;33.00;70.30;;;;;;20992359;28;20101;-63
2022/07/15 14:12:51;;;;;;;7.65;6.88;;;32.50;69.60;;;;;;20975249;28;20048;-64
2022/07/15 14:22:54;;;;;;;5.57;5.07;;;32.80;69.80;;;;;;20989273;28;20534;-62
2022/07/15 14:32:57;;;;;;;7.45;4.82;;;31.20;67.20;;;;;;21057117;28;20450;-62
2022/07/15 14:43:00;;;;;;;5.75;4.88;;;29.70;73.50;;;;;;21055882;28;20028;-63
2022/07/15 14:53:03;;;;;;;4.95;4.47;;;30.40;73.60;;;;;;21055347;28;20070;-63
2022/07/15 15:03:05;;;;;;;7.53;5.40;;;33.30;65.40;;;;;;20982422;28;20079;-63
2022/07/15 15:13:08;;;;;;;6.88;4.68;;;34.20;65.00;;;;;;20970221;28;20044;-63
2022/07/15 15:23:12;;;;;;;5.07;4.32;;;32.40;63.70;;;;;;20970154;28;20032;-61
2022/07/15 15:33:16;;;;;;;4.80;4.15;;;27.40;72.10;;;;;;20952747;28;20040;-61
2022/07/15 15:43:20;;;;;;;5.75;4.05;;;26.80;73.10;;;;;;20954894;28;20032;-62
2022/07/15 15:53:22;;;;;;;5.60;3.47;;;26.00;77.90;;;;;;21050469;28;20480;-61
2022/07/15 16:03:24;;;;;;;5.30;3.85;;;26.10;75.10;;;;;;21051039;28;20089;-61
2022/07/15 16:13:27;;;;;;;8.68;4.45;;;25.50;77.90;;;;;;21050353;28;20056;-61
2022/07/15 16:23:30;;;;;;;8.45;3.95;;;25.00;79.80;;;;;;21029881;28;20036;-61
2022/07/15 16:33:33;;;;;;;6.13;5.28;;;24.80;78.90;;;;;;20967083;28;20110;-61
2022/07/15 16:43:36;;;;;;;8.13;6.00;;;25.20;81.00;;;;;;20965803;28;20101;-57
2022/07/15 16:53:39;;;;;;;9.38;4.38;;;26.10;81.70;;;;;;20965541;28;20048;-61
2022/07/15 17:03:41;;;;;;;6.78;4.50;;;25.80;80.50;;;;;;21053599;28;20039;-61
2022/07/15 17:13:44;;;;;;;6.60;4.45;;;25.50;82.00;;;;;;21063274;28;20063;-62
2022/07/15 17:23:47;;;;;;;7.00;5.15;;;24.90;83.20;;;;;;21062871;28;20089;-61
2022/07/15 17:33:50;;;;;;;8.60;4.50;;;24.50;84.20;;;;;;21061912;28;20101;-61
2022/07/15 17:43:53;;;;;;;4.72;4.03;;;24.30;85.70;;;;;;21037200;28;20397;-61
2022/07/15 17:53:55;;;;;;;6.60;4.55;;;23.80;86.80;;;;;;20976796;28;20040;-61
2022/07/15 18:03:58;;;;;;;10.63;4.95;;;23.10;88.40;;;;;;20959308;28;20066;-60
2022/07/15 18:14:00;;;;;;;6.53;5.40;;;22.40;89.70;;;;;;20973992;28;20452;-61
2022/07/15 18:24:02;;;;;;;6.75;5.97;;;22.00;90.70;;;;;;20991350;28;20489;-59
2022/07/15 18:34:05;;;;;;;9.50;7.30;;;21.60;91.40;;;;;;20974009;28;20426;-60
2022/07/15 18:44:08;;;;;;;8.20;7.07;;;21.30;92.80;;;;;;20972741;28;20037;-60
2022/07/15 18:54:11;;;;;;;9.02;7.20;;;21.00;93.40;;;;;;20972202;28;20093;-60
2022/07/15 19:04:14;;;;;;;15.65;10.57;;;20.70;94.50;;;;;;20971674;28;20397;-60
2022/07/15 19:14:17;;;;;;;11.75;9.60;;;20.40;95.40;;;;;;20971040;28;20125;-59
2022/07/15 19:24:22;;;;;;;15.30;8.40;;;20.30;95.50;;;;;;20969323;28;20086;-59
2022/07/15 19:34:27;;;;;;;7.85;7.05;;;20.00;96.20;;;;;;20969004;28;20090;-59
2022/07/15 19:44:30;;;;;;;8.77;7.88;;;20.00;95.90;;;;;;20968254;28;20102;-61
2022/07/15 19:54:32;;;;;;;9.38;6.78;;;19.80;96.50;;;;;;20968010;28;20033;-60
2022/07/15 20:04:35;;;;;;;8.30;7.50;;;19.50;97.10;;;;;;20968430;28;20029;-59
2022/07/15 20:14:37;;;;;;;11.50;8.80;;;19.40;97.90;;;;;;20900722;28;20053;-59
2022/07/15 20:24:40;;;;;;;11.20;9.52;;;19.10;99.90;;;;;;20900077;28;20090;-59
2022/07/15 20:34:43;;;;;;;15.10;11.02;;;18.80;99.90;;;;;;20889667;28;20033;-59
2022/07/15 20:44:46;;;;;;;13.55;11.43;;;18.40;99.90;;;;;;20899343;28;20478;-59
2022/07/15 20:54:48;;;;;;;13.65;12.25;;;18.20;99.90;;;;;;20898415;28;20064;-59
2022/07/15 21:04:51;;;;;;;17.80;13.52;;;17.90;99.90;;;;;;20897808;28;20025;-59
2022/07/15 21:14:54;;;;;;;17.60;13.88;;;17.70;99.90;;;;;;20970576;28;20071;-58
2022/07/15 21:35:18;;;;;;;18.95;15.52;;;17.40;99.90;;;;;;20978576;28;20044;-59
2022/07/15 21:45:24;;;;;;;19.30;16.17;;;17.30;99.90;;;;;;20996047;28;20035;-59
2022/07/15 21:55:27;;;;;;;21.67;18.58;;;17.20;99.90;;;;;;21055764;28;20083;-61
2022/07/15 22:05:29;;;;;;;18.42;15.73;;;17.20;99.90;;;;;;20976120;28;20565;-59
2022/07/15 22:15:31;;;;;;;18.02;16.23;;;17.30;99.90;;;;;;20976026;28;20456;-60
2022/07/15 22:25:33;;;;;;;18.42;16.05;;;17.20;99.90;;;;;;20974331;28;20032;-60
2022/07/15 22:35:36;;;;;;;18.90;15.55;;;17.20;99.90;;;;;;20974321;28;20061;-59
2022/07/15 22:45:39;;;;;;;17.98;15.60;;;17.20;99.90;;;;;;20974992;28;20041;-54
2022/07/15 22:55:41;;;;;;;20.92;15.20;;;17.20;99.90;;;;;;20972668;28;20029;-60
2022/07/15 23:05:45;;;;;;;16.15;14.35;;;17.20;99.90;;;;;;20971548;28;20090;-53
2022/07/15 23:15:47;;;;;;;14.95;12.65;;;17.20;99.90;;;;;;20970530;28;20056;-59
2022/07/15 23:25:50;;;;;;;15.68;13.82;;;17.20;99.90;;;;;;20969908;28;20032;-59
2022/07/15 23:35:52;;;;;;;14.95;13.40;;;17.20;99.90;;;;;;20952334;28;20040;-59
2022/07/15 23:45:55;;;;;;;12.25;10.55;;;17.20;99.90;;;;;;20993325;28;20036;-59
2022/07/15 23:55:58;;;;;;;13.02;11.70;;;17.10;99.90;;;;;;21051323;28;20028;-58
